Terminal Aerodrome Forecast
Issued by NWS Wilmington, NC

Home | Current Version | Previous Version | Text Only | Print | Product List | Glossary On
Versions: 1 2 3 4 5 6 7 8 9 10 11 12 13 14 15 16 17
000
FTUS42 KILM 310500
TAFLBT
TAF
KLBT 310530Z 3106/0106 VRB03KT P6SM BKN090 BKN250
      TEMPO 3108/3112 4SM BR
     FM311300 10007KT P6SM FEW040 SCT090 BKN200
     FM010000 08004KT P6SM FEW025 SCT250=

USA.gov is the U.S. government's official web portal to all federal, state and local government web resources and services.